Time;durP1;ratioP1;P1;durP2;ratioP2;P2;SDS_P1;SDS_P2;PMS_P1;PMS_P2;Temp;Humidity;BMP_temperature;BMP_pressure;BME280_temperature;BME280_humidity;BME280_pressure;Samples;Min_cycle;Max_cycle;Signal;HPM_P1;HPM_P2
2021/09/24 00:01:58;;;;;;;12.20;5.53;;;;;;;10.48;58.51;101738.03;5133197;27;20665;-59
2021/09/24 00:04:27;;;;;;;6.63;5.13;;;;;;;10.46;58.68;101734.88;5132880;27;20181;-59
2021/09/24 00:06:53;;;;;;;7.60;5.20;;;;;;;10.53;58.54;101727.31;5133252;27;20180;-59
2021/09/24 00:09:18;;;;;;;8.00;5.20;;;;;;;10.27;59.04;101677.19;5133146;27;20643;-59
2021/09/24 00:11:44;;;;;;;9.47;5.30;;;;;;;10.61;58.89;101728.06;5132660;27;20706;-59
2021/09/24 00:14:09;;;;;;;9.40;5.20;;;;;;;10.55;59.34;101711.06;5132752;27;20209;-59
2021/09/24 00:16:36;;;;;;;7.53;5.03;;;;;;;10.62;59.18;101716.56;5132741;27;20187;-60
2021/09/24 00:19:02;;;;;;;7.63;5.03;;;;;;;10.67;59.18;101727.19;5132662;27;20211;-59
2021/09/24 00:21:28;;;;;;;6.77;5.03;;;;;;;10.71;59.28;101722.44;5132237;27;20654;-59
2021/09/24 00:23:53;;;;;;;6.23;5.20;;;;;;;10.63;59.39;101712.59;5132822;27;20252;-59
2021/09/24 00:26:19;;;;;;;6.73;5.17;;;;;;;10.74;59.40;101726.38;5132383;27;20553;-59
2021/09/24 00:28:44;;;;;;;8.30;5.80;;;;;;;10.77;59.17;101725.56;5133076;27;20235;-59
2021/09/24 00:31:10;;;;;;;6.83;5.20;;;;;;;10.75;59.58;101717.66;5132187;27;20178;-59
2021/09/24 00:33:35;;;;;;;7.87;5.30;;;;;;;10.74;59.18;101716.09;5132599;27;20675;-59
2021/09/24 00:36:01;;;;;;;6.33;4.80;;;;;;;10.52;59.35;101691.69;5132376;27;20189;-59
2021/09/24 00:38:27;;;;;;;7.40;5.47;;;;;;;10.66;59.04;101711.78;5132372;27;20274;-59
2021/09/24 00:40:53;;;;;;;8.87;5.97;;;;;;;10.65;59.65;101720.53;5132546;27;20670;-58
2021/09/24 00:43:19;;;;;;;9.30;5.00;;;;;;;10.48;58.90;101685.38;5132109;27;20185;-59
2021/09/24 00:45:46;;;;;;;12.57;5.90;;;;;;;10.64;59.21;101719.72;5132386;27;20196;-59
2021/09/24 00:48:11;;;;;;;8.83;5.37;;;;;;;10.63;59.25;101707.06;5132061;27;20214;-59
2021/09/24 00:50:37;;;;;;;9.93;5.60;;;;;;;10.66;59.36;101708.22;5131963;27;20627;-59
2021/09/24 00:53:03;;;;;;;9.30;5.90;;;;;;;10.57;59.60;101692.06;5131864;27;20319;-59
2021/09/24 00:55:29;;;;;;;7.33;5.70;;;;;;;10.49;59.90;101693.28;5132179;27;20192;-59
2021/09/24 00:57:55;;;;;;;7.97;6.17;;;;;;;10.52;59.20;101702.78;5131756;27;20562;-59
2021/09/24 01:00:21;;;;;;;9.73;5.73;;;;;;;10.24;59.57;101653.09;5131955;27;20200;-59
2021/09/24 01:02:47;;;;;;;7.00;5.13;;;;;;;10.58;58.70;101693.63;5131825;27;20190;-59
2021/09/24 01:05:14;;;;;;;5.90;5.00;;;;;;;10.63;58.59;101684.88;5131951;27;20254;-59
2021/09/24 01:07:44;;;;;;;7.70;5.13;;;;;;;10.64;59.10;101688.44;5131699;27;20565;-59
2021/09/24 01:10:12;;;;;;;6.90;5.40;;;;;;;10.60;58.75;101669.06;5131062;27;20237;-60
2021/09/24 01:12:38;;;;;;;7.97;5.40;;;;;;;10.62;58.62;101661.13;5132263;27;20554;-59
2021/09/24 01:15:08;;;;;;;5.90;5.10;;;;;;;10.72;58.89;101665.78;5131286;27;20251;-59
2021/09/24 01:17:34;;;;;;;7.60;5.40;;;;;;;10.54;58.43;101622.75;5113657;27;20179;-59
2021/09/24 01:20:00;;;;;;;8.17;5.40;;;;;;;10.78;58.56;101655.84;5112718;27;20195;-59
2021/09/24 01:22:26;;;;;;;10.23;5.90;;;;;;;10.88;58.60;101665.28;5131791;27;20231;-59
2021/09/24 01:24:51;;;;;;;7.87;5.60;;;;;;;10.71;58.71;101641.25;5131299;27;20703;-58
2021/09/24 01:27:17;;;;;;;7.23;5.43;;;;;;;10.90;59.00;101657.31;5131983;27;20194;-59
2021/09/24 01:29:42;;;;;;;10.67;5.77;;;;;;;10.77;58.90;101628.53;5131330;27;20283;-59
2021/09/24 01:32:08;;;;;;;9.17;5.57;;;;;;;10.92;58.23;101658.47;5130466;27;20204;-59
2021/09/24 01:34:33;;;;;;;8.30;5.70;;;;;;;10.95;58.40;101657.69;5130992;27;20180;-59
2021/09/24 01:36:59;;;;;;;6.60;5.77;;;;;;;10.75;58.45;101609.53;5113197;27;20183;-59
2021/09/24 01:39:24;;;;;;;7.33;5.60;;;;;;;10.81;58.76;101626.53;5131216;27;20195;-59
2021/09/24 01:41:51;;;;;;;5.90;5.30;;;;;;;11.07;58.01;101643.28;5130789;27;20278;-59
2021/09/24 01:44:16;;;;;;;6.77;5.63;;;;;;;11.13;58.60;101649.97;5131520;27;20730;-59
2021/09/24 01:46:44;;;;;;;7.20;5.43;;;;;;;11.20;58.70;101644.34;5131150;27;20189;-59
2021/09/24 01:49:11;;;;;;;7.57;5.73;;;;;;;11.03;58.47;101631.47;5131329;27;20179;-59
2021/09/24 01:51:39;;;;;;;6.97;5.57;;;;;;;11.20;58.86;101638.00;5130539;27;20713;-59
2021/09/24 01:54:05;;;;;;;7.07;5.50;;;;;;;11.03;58.92;101628.69;5131248;27;20196;-59
2021/09/24 01:56:31;;;;;;;8.13;5.37;;;;;;;11.23;57.76;101637.19;5130639;27;20572;-59
2021/09/24 01:58:57;;;;;;;7.70;5.47;;;;;;;11.26;58.84;101623.28;5131076;27;20268;-59
2021/09/24 02:01:23;;;;;;;6.67;5.30;;;;;;;11.33;58.99;101631.53;5130258;27;20194;-58
2021/09/24 02:03:48;;;;;;;6.40;5.50;;;;;;;11.34;58.96;101627.56;5131272;27;20204;-59
2021/09/24 02:06:14;;;;;;;5.80;5.20;;;;;;;11.34;57.99;101621.22;5130726;27;20673;-59
2021/09/24 02:08:40;;;;;;;7.33;5.33;;;;;;;11.33;59.27;101620.41;5130703;27;20202;-58
2021/09/24 02:11:07;;;;;;;11.40;5.73;;;;;;;11.40;58.40;101625.91;5123264;27;20189;-59
2021/09/24 02:13:33;;;;;;;12.83;6.67;;;;;;;11.41;58.62;101619.16;5130451;27;20740;-59
2021/09/24 02:15:59;;;;;;;10.37;6.47;;;;;;;11.45;58.56;101627.44;5110407;28;20272;-59
2021/09/24 02:18:24;;;;;;;10.77;5.57;;;;;;;11.46;57.82;101612.34;5126926;28;20624;-58
2021/09/24 02:20:50;;;;;;;10.87;5.90;;;;;;;11.47;58.02;101623.03;5130544;28;20207;-58
2021/09/24 02:23:15;;;;;;;7.10;5.30;;;;;;;11.46;57.81;101621.47;5130708;28;20255;-59
2021/09/24 02:25:41;;;;;;;9.03;5.17;;;;;;;11.32;57.48;101610.53;5130827;28;20584;-59
2021/09/24 02:28:06;;;;;;;6.17;4.90;;;;;;;11.47;56.39;101620.25;5130419;28;20483;-59
2021/09/24 02:30:32;;;;;;;6.87;4.77;;;;;;;11.34;55.63;101588.72;5130858;28;20268;-58
2021/09/24 02:32:57;;;;;;;5.73;4.93;;;;;;;11.45;55.69;101583.81;5111917;28;20184;-59
2021/09/24 02:35:23;;;;;;;7.80;5.27;;;;;;;11.36;55.77;101555.78;5130836;28;20193;-58
2021/09/24 02:37:48;;;;;;;6.97;5.23;;;;;;;11.66;55.88;101593.88;5130499;28;20182;-58
2021/09/24 02:40:14;;;;;;;6.40;5.43;;;;;;;11.49;55.33;101561.56;5130524;28;20567;-59
2021/09/24 02:42:39;;;;;;;6.67;5.33;;;;;;;11.80;55.18;101591.72;5132214;27;20570;-58
2021/09/24 02:45:05;;;;;;;6.33;5.00;;;;;;;11.60;56.14;101560.25;5134753;27;20221;-58
2021/09/24 02:47:31;;;;;;;6.93;5.30;;;;;;;11.86;55.38;101583.69;5134671;27;20662;-59
2021/09/24 02:49:56;;;;;;;5.40;4.90;;;;;;;11.97;55.42;101587.91;5134279;27;20527;-59
2021/09/24 02:52:22;;;;;;;8.40;5.37;;;;;;;12.06;55.50;101579.06;5134594;27;20378;-58
2021/09/24 02:54:48;;;;;;;6.77;4.93;;;;;;;12.12;55.36;101588.47;5134313;27;20175;-59
2021/09/24 02:57:13;;;;;;;6.60;5.13;;;;;;;12.18;56.44;101592.34;5134853;27;20173;-58
2021/09/24 02:59:39;;;;;;;6.80;5.33;;;;;;;11.93;55.94;101553.84;5134156;27;20651;-58
2021/09/24 03:02:04;;;;;;;5.20;4.70;;;;;;;12.16;55.57;101578.09;5134132;27;20174;-58
2021/09/24 03:04:30;;;;;;;7.10;5.33;;;;;;;12.16;55.27;101587.25;5134162;27;20198;-59
2021/09/24 03:06:55;;;;;;;6.90;5.90;;;;;;;12.03;56.05;101563.22;5134345;27;20194;-59
2021/09/24 03:09:21;;;;;;;5.60;4.93;;;;;;;12.13;56.23;101588.06;5133681;27;20178;-59
2021/09/24 03:11:46;;;;;;;6.60;5.33;;;;;;;11.99;55.70;101579.16;5134016;27;20630;-59
2021/09/24 03:14:12;;;;;;;7.57;5.67;;;;;;;11.98;55.19;101586.69;5133846;27;20612;-58
2021/09/24 03:16:37;;;;;;;6.40;5.40;;;;;;;11.92;56.52;101562.59;5133914;27;20718;-59
2021/09/24 03:19:05;;;;;;;5.77;5.10;;;;;;;12.08;55.27;101579.41;5116003;27;20188;-58
2021/09/24 03:21:30;;;;;;;7.40;5.40;;;;;;;12.10;56.01;101571.44;5133350;27;20182;-58
2021/09/24 03:23:56;;;;;;;6.03;5.23;;;;;;;12.14;55.53;101572.19;5134549;27;20202;-58
2021/09/24 03:26:22;;;;;;;6.27;5.10;;;;;;;12.17;55.98;101576.91;5133417;27;20193;-59
2021/09/24 03:28:48;;;;;;;6.03;5.43;;;;;;;12.17;56.02;101576.91;5134171;27;20176;-59
2021/09/24 03:31:15;;;;;;;6.73;5.77;;;;;;;12.14;55.81;101574.97;5133290;27;20178;-59
2021/09/24 03:33:41;;;;;;;5.83;4.80;;;;;;;12.18;55.92;101576.47;5133883;27;20177;-59
2021/09/24 03:36:06;;;;;;;14.00;5.97;;;;;;;12.22;56.15;101566.09;5133713;27;20178;-59
2021/09/24 03:38:32;;;;;;;8.50;5.90;;;;;;;12.25;56.67;101564.47;5133932;27;20193;-58
2021/09/24 03:40:57;;;;;;;11.30;6.00;;;;;;;12.11;56.28;101534.13;5133078;27;20181;-58
2021/09/24 03:43:23;;;;;;;8.03;5.97;;;;;;;12.25;56.83;101550.56;5133665;27;20189;-59
2021/09/24 03:45:48;;;;;;;8.67;5.73;;;;;;;12.22;56.53;101540.28;5133102;27;20235;-59
2021/09/24 03:48:14;;;;;;;7.10;5.57;;;;;;;12.26;56.88;101538.25;5132997;27;20185;-59
2021/09/24 03:50:39;;;;;;;6.83;5.10;;;;;;;12.29;58.04;101515.94;5133399;27;20178;-59
2021/09/24 03:53:05;;;;;;;7.47;5.80;;;;;;;12.30;57.93;101531.41;5132993;27;20221;-58
2021/09/24 03:55:30;;;;;;;6.93;6.23;;;;;;;12.26;57.73;101529.91;5132342;27;20486;-60
2021/09/24 03:57:56;;;;;;;8.23;5.97;;;;;;;12.22;57.32;101520.84;5127470;27;20189;-58
2021/09/24 04:00:21;;;;;;;6.97;5.53;;;;;;;12.10;57.69;101513.88;5131784;27;20196;-59
2021/09/24 04:02:47;;;;;;;6.53;5.80;;;;;;;11.98;57.83;101483.91;5121232;27;20313;-59
2021/09/24 04:05:13;;;;;;;8.73;5.90;;;;;;;12.19;58.17;101500.22;5123625;27;20605;-59
2021/09/24 04:07:39;;;;;;;8.00;6.13;;;;;;;12.17;58.22;101496.31;5131937;27;20186;-59
2021/09/24 04:10:05;;;;;;;6.53;5.43;;;;;;;12.03;57.92;101465.97;5132063;27;20228;-59
2021/09/24 04:12:30;;;;;;;8.50;6.30;;;;;;;12.16;58.41;101506.66;5132589;27;20185;-60
2021/09/24 04:14:56;;;;;;;10.80;6.67;;;;;;;11.85;58.30;101460.72;5132599;27;20177;-58
2021/09/24 04:17:21;;;;;;;8.50;6.50;;;;;;;12.00;57.71;101481.50;5131690;27;20186;-60
2021/09/24 04:19:47;;;;;;;8.40;6.90;;;;;;;12.11;58.19;101487.69;5131422;27;20178;-60
2021/09/24 04:22:12;;;;;;;13.77;7.33;;;;;;;11.98;57.36;101500.59;5132079;27;20680;-59
2021/09/24 04:24:38;;;;;;;14.73;7.23;;;;;;;11.73;57.58;101466.09;5132032;27;20205;-60
2021/09/24 04:27:03;;;;;;;15.17;6.80;;;;;;;11.80;57.89;101500.09;5132799;27;20182;-60
2021/09/24 04:29:29;;;;;;;12.37;7.30;;;;;;;11.82;57.35;101500.44;5131461;27;20205;-60
2021/09/24 04:31:55;;;;;;;10.97;6.40;;;;;;;11.49;57.36;101465.22;5131967;27;20170;-60
2021/09/24 04:34:20;;;;;;;9.57;6.20;;;;;;;11.70;57.62;101508.56;5131188;27;20196;-59
2021/09/24 04:36:46;;;;;;;10.57;6.33;;;;;;;11.44;57.52;101464.88;5131756;27;20607;-59
2021/09/24 04:39:11;;;;;;;12.03;6.50;;;;;;;11.78;57.61;101501.72;5130480;27;20191;-59
2021/09/24 04:41:37;;;;;;;19.47;11.50;;;;;;;11.56;57.54;101459.53;5131015;27;20310;-59
2021/09/24 04:44:03;;;;;;;23.73;12.53;;;;;;;11.83;57.64;101495.69;5111702;27;20284;-59
2021/09/24 04:46:29;;;;;;;20.37;12.47;;;;;;;11.71;57.60;101477.59;5130881;27;20569;-59
2021/09/24 04:48:54;;;;;;;34.57;18.77;;;;;;;11.76;57.42;101474.34;5121353;27;20182;-59
2021/09/24 04:51:20;;;;;;;27.90;15.57;;;;;;;11.79;57.70;101489.38;5117959;27;20440;-60
2021/09/24 04:53:45;;;;;;;20.27;10.13;;;;;;;11.79;58.00;101501.25;5105441;28;20201;-59
2021/09/24 04:56:11;;;;;;;9.83;7.57;;;;;;;11.62;56.41;101480.09;5105104;28;20635;-59
2021/09/24 04:58:36;;;;;;;12.23;7.97;;;;;;;11.76;57.54;101512.44;5098853;28;20186;-60
2021/09/24 05:01:02;;;;;;;8.60;6.17;;;;;;;11.47;57.87;101489.03;5100727;27;20182;-59
2021/09/24 05:03:27;;;;;;;8.00;6.40;;;;;;;11.72;57.26;101523.59;5108163;27;20281;-60
2021/09/24 05:05:53;;;;;;;9.77;6.20;;;;;;;11.86;57.58;101533.72;5087980;27;20269;-59
2021/09/24 05:08:18;;;;;;;7.63;6.40;;;;;;;12.02;57.48;101531.88;5091262;28;20183;-59
2021/09/24 05:10:44;;;;;;;13.63;6.93;;;;;;;11.79;57.57;101473.50;5097448;27;20242;-59
2021/09/24 05:13:09;;;;;;;7.50;6.40;;;;;;;12.03;57.34;101486.22;5126187;27;20196;-60
2021/09/24 05:15:35;;;;;;;11.07;6.67;;;;;;;12.31;57.12;101501.63;5110839;27;20177;-59
2021/09/24 05:18:00;;;;;;;8.90;5.77;;;;;;;12.46;56.54;101502.97;5124062;27;20178;-59
2021/09/24 05:20:27;;;;;;;8.33;6.30;;;;;;;12.55;56.60;101508.78;5113261;27;20190;-59
2021/09/24 05:22:56;;;;;;;8.97;6.47;;;;;;;12.62;56.52;101511.41;5112411;27;20186;-60
2021/09/24 05:25:22;;;;;;;10.77;7.90;;;;;;;12.78;55.70;101508.72;5108177;27;20205;-60
2021/09/24 05:27:49;;;;;;;9.53;7.43;;;;;;;12.85;55.95;101503.00;5093345;27;20196;-60
2021/09/24 05:30:15;;;;;;;8.03;6.60;;;;;;;13.02;55.68;101510.28;5111536;27;20256;-59
2021/09/24 05:32:41;;;;;;;10.50;7.27;;;;;;;12.93;55.85;101488.56;5108836;27;20178;-59
2021/09/24 05:35:07;;;;;;;9.73;7.27;;;;;;;13.09;56.59;101496.22;5110695;27;20240;-59
2021/09/24 05:37:33;;;;;;;8.40;6.93;;;;;;;13.23;57.73;101521.75;5118673;27;20175;-59
2021/09/24 05:39:59;;;;;;;7.97;7.00;;;;;;;13.46;57.66;101524.47;5113401;27;20183;-60
2021/09/24 05:42:24;;;;;;;12.13;6.83;;;;;;;13.46;57.80;101493.84;5119223;27;20207;-60
2021/09/24 05:44:50;;;;;;;7.83;6.33;;;;;;;13.80;57.58;101524.13;5113563;27;20203;-59
2021/09/24 05:47:15;;;;;;;7.37;6.23;;;;;;;13.76;57.44;101506.69;5103534;27;20222;-60
2021/09/24 05:49:41;;;;;;;8.13;7.17;;;;;;;14.08;57.10;101520.69;5106605;27;20261;-60
2021/09/24 05:52:06;;;;;;;11.97;6.90;;;;;;;14.23;57.11;101514.34;5118388;27;20233;-60
2021/09/24 05:54:32;;;;;;;9.53;6.90;;;;;;;14.38;56.54;101501.63;5128693;27;20690;-59
2021/09/24 05:56:57;;;;;;;6.87;6.17;;;;;;;14.50;56.55;101498.09;5129054;27;20714;-59
2021/09/24 05:59:23;;;;;;;9.67;5.73;;;;;;;14.42;55.97;101463.28;5129164;27;20577;-60
2021/09/24 06:01:49;;;;;;;6.20;5.60;;;;;;;14.72;55.21;101501.91;5128828;27;20179;-60
2021/09/24 06:04:16;;;;;;;8.27;6.10;;;;;;;14.60;54.97;101468.38;5128943;27;20226;-60
2021/09/24 06:06:41;;;;;;;7.20;6.30;;;;;;;14.68;54.28;101492.84;5107627;27;20565;-60
2021/09/24 06:09:07;;;;;;;6.87;6.13;;;;;;;14.69;54.13;101511.16;5128355;27;20188;-60
2021/09/24 06:11:33;;;;;;;7.07;6.00;;;;;;;14.92;53.88;101507.34;5110107;27;20412;-60
2021/09/24 06:13:58;;;;;;;6.93;5.70;;;;;;;15.08;53.69;101504.50;5127627;27;20177;-59
2021/09/24 06:16:24;;;;;;;7.17;5.57;;;;;;;15.21;53.75;101508.91;5128636;27;20242;-60
2021/09/24 06:18:51;;;;;;;7.10;5.80;;;;;;;15.38;53.24;101509.66;5128073;28;20182;-59
2021/09/24 06:21:18;;;;;;;6.90;6.10;;;;;;;15.47;53.24;101513.34;5122003;28;20174;-59
2021/09/24 06:23:44;;;;;;;10.47;6.17;;;;;;;15.59;52.83;101512.59;5125225;28;20174;-60
2021/09/24 06:26:10;;;;;;;9.73;6.20;;;;;;;15.71;52.76;101511.03;5127365;28;20219;-59
2021/09/24 06:28:36;;;;;;;8.97;6.37;;;;;;;15.70;52.61;101501.88;5108759;28;20208;-59
2021/09/24 06:31:01;;;;;;;8.33;6.30;;;;;;;15.81;52.44;101504.31;5126705;28;20183;-60
2021/09/24 06:33:27;;;;;;;11.53;6.53;;;;;;;15.95;51.73;101510.25;5122607;28;20639;-59
2021/09/24 06:35:53;;;;;;;6.93;5.97;;;;;;;16.01;52.27;101496.50;5126673;28;20223;-59
2021/09/24 06:38:18;;;;;;;9.23;6.53;;;;;;;16.14;52.50;101506.44;5124503;28;20185;-59
2021/09/24 06:40:44;;;;;;;9.10;6.40;;;;;;;16.29;51.58;101501.94;5125428;28;20602;-59
2021/09/24 06:43:10;;;;;;;8.33;7.47;;;;;;;16.12;51.23;101449.38;5101549;28;20182;-60
2021/09/24 06:45:36;;;;;;;7.10;6.40;;;;;;;16.37;50.26;101466.91;5122243;28;20193;-59
2021/09/24 06:48:02;;;;;;;10.23;6.27;;;;;;;16.58;48.72;101474.59;5126865;28;20479;-59
2021/09/24 06:50:28;;;;;;;8.67;6.00;;;;;;;16.74;48.17;101491.22;5126202;28;20654;-60
2021/09/24 06:52:54;;;;;;;15.30;6.53;;;;;;;16.86;48.58;101492.41;5124528;27;20286;-60
2021/09/24 06:55:22;;;;;;;10.43;6.10;;;;;;;16.98;48.15;101490.78;5120238;28;20253;-60
2021/09/24 06:57:51;;;;;;;11.57;7.67;;;;;;;17.05;48.03;101492.06;5122420;28;20642;-60
2021/09/24 07:00:17;;;;;;;15.20;9.60;;;;;;;17.07;47.42;101502.81;5125450;28;20589;-61
2021/09/24 07:02:42;;;;;;;12.00;6.03;;;;;;;17.19;47.19;101501.97;5094456;28;20181;-61
2021/09/24 07:05:08;;;;;;;8.63;5.70;;;;;;;17.33;46.50;101495.84;5120381;27;20210;-61
2021/09/24 07:07:34;;;;;;;9.80;5.87;;;;;;;17.50;47.01;101511.22;5095382;27;20213;-61
2021/09/24 07:09:59;;;;;;;9.20;6.10;;;;;;;17.52;47.57;101502.38;5125747;27;20192;-61
2021/09/24 07:12:25;;;;;;;9.37;5.97;;;;;;;17.39;46.74;101466.03;5120828;27;20198;-62
2021/09/24 07:14:51;;;;;;;8.60;5.97;;;;;;;17.72;46.26;101497.97;5122819;27;20190;-61
2021/09/24 07:17:17;;;;;;;10.07;5.80;;;;;;;17.77;45.53;101490.97;5123070;27;20653;-61
2021/09/24 07:19:43;;;;;;;8.70;6.23;;;;;;;18.01;45.39;101503.22;5126201;27;20182;-60
2021/09/24 07:22:09;;;;;;;7.00;5.73;;;;;;;18.08;45.16;101486.09;5124262;27;20198;-61
2021/09/24 07:24:34;;;;;;;7.97;5.50;;;;;;;18.18;43.70;101486.44;5124178;27;20237;-61
2021/09/24 07:27:00;;;;;;;7.13;5.60;;;;;;;18.14;47.46;101491.41;5124182;27;20178;-61
2021/09/24 07:29:26;;;;;;;7.23;5.83;;;;;;;18.04;48.35;101491.84;5126079;27;20728;-60
2021/09/24 07:31:51;;;;;;;11.00;5.90;;;;;;;18.32;48.10;101487.91;5126689;27;20191;-61
2021/09/24 07:34:17;;;;;;;10.10;6.00;;;;;;;18.50;47.67;101484.34;5127124;27;20237;-60
2021/09/24 07:36:42;;;;;;;8.47;6.13;;;;;;;18.46;46.53;101490.09;5103773;27;20192;-60
2021/09/24 07:39:08;;;;;;;8.43;6.30;;;;;;;17.94;46.93;101465.78;5123588;27;20704;-61
2021/09/24 07:41:33;;;;;;;8.73;6.23;;;;;;;18.36;46.85;101484.94;5124985;27;20216;-60
2021/09/24 07:44:00;;;;;;;7.30;6.17;;;;;;;18.36;47.57;101456.88;5126123;27;20357;-60
2021/09/24 07:46:26;;;;;;;7.23;6.00;;;;;;;18.52;46.83;101445.38;5102856;27;20192;-60
2021/09/24 07:48:52;;;;;;;10.67;6.20;;;;;;;18.79;45.50;101479.06;5125369;27;20656;-60
2021/09/24 07:51:17;;;;;;;7.60;4.60;;;;;;;18.66;42.76;101479.22;5124245;27;20593;-61
2021/09/24 07:53:44;;;;;;;5.93;4.20;;;;;;;18.72;42.43;101482.97;5126385;27;20190;-60
2021/09/24 07:56:09;;;;;;;6.00;3.70;;;;;;;18.74;40.48;101486.09;5123101;27;20350;-60
2021/09/24 07:58:38;;;;;;;4.33;3.17;;;;;;;18.79;38.96;101484.69;5124478;27;20618;-60
2021/09/24 08:01:08;;;;;;;6.00;3.40;;;;;;;18.90;38.11;101482.19;5126037;27;20188;-60
2021/09/24 08:03:35;;;;;;;4.93;2.83;;;;;;;18.43;39.10;101403.25;5124527;27;20190;-60
2021/09/24 08:06:01;;;;;;;3.57;2.80;;;;;;;19.06;37.99;101477.03;5125591;27;20299;-61
2021/09/24 08:08:27;;;;;;;4.67;3.20;;;;;;;19.05;37.56;101469.84;5124433;27;20196;-60
2021/09/24 08:10:52;;;;;;;3.73;2.87;;;;;;;19.15;36.33;101477.00;5123594;27;20577;-61
2021/09/24 08:13:18;;;;;;;4.67;2.80;;;;;;;19.32;36.47;101485.88;5124158;27;20268;-60
2021/09/24 08:15:44;;;;;;;4.13;3.00;;;;;;;19.40;36.53;101487.13;5125017;27;20567;-60
2021/09/24 08:18:12;;;;;;;4.13;2.80;;;;;;;19.45;35.92;101480.88;5125009;27;20193;-61
2021/09/24 08:20:37;;;;;;;4.60;2.73;;;;;;;19.50;35.33;101466.94;5128549;27;20189;-60
2021/09/24 08:23:03;;;;;;;4.00;2.60;;;;;;;19.56;34.92;101478.34;5129442;27;20197;-61
2021/09/24 08:25:28;;;;;;;5.17;2.60;;;;;;;19.52;34.40;101463.66;5125813;27;20206;-60
2021/09/24 08:27:54;;;;;;;5.00;2.60;;;;;;;19.58;35.46;101461.75;5122895;27;22024;-61
2021/09/24 08:30:25;;;;;;;4.03;2.70;;;;;;;19.73;34.87;101477.50;5126621;27;20186;-60
2021/09/24 08:32:51;;;;;;;3.53;2.70;;;;;;;19.79;34.36;101472.00;5122736;27;20251;-60
2021/09/24 08:35:17;;;;;;;4.17;2.93;;;;;;;19.63;34.53;101430.19;5124672;27;20651;-60
2021/09/24 08:37:45;;;;;;;4.50;2.73;;;;;;;19.90;34.40;101469.47;5125339;27;20202;-61
2021/09/24 08:40:12;;;;;;;7.80;3.50;;;;;;;20.02;34.30;101468.47;5123809;27;20189;-61
2021/09/24 08:42:42;;;;;;;3.70;2.70;;;;;;;19.78;34.71;101428.25;5124218;27;20186;-60
2021/09/24 08:45:13;;;;;;;4.43;3.07;;;;;;;20.09;34.40;101440.78;5124892;27;20261;-61
2021/09/24 08:47:39;;;;;;;4.60;3.03;;;;;;;20.23;33.52;101451.31;5104291;27;20198;-60
2021/09/24 08:50:06;;;;;;;4.73;2.97;;;;;;;20.28;33.27;101458.31;5117415;27;20178;-60
2021/09/24 08:52:33;;;;;;;3.47;2.90;;;;;;;20.37;33.20;101441.38;5121911;27;20234;-60
2021/09/24 08:54:58;;;;;;;4.50;2.80;;;;;;;20.47;32.87;101446.44;5104130;27;20171;-60
2021/09/24 08:57:24;;;;;;;7.87;3.17;;;;;;;20.57;33.09;101436.66;5123926;27;20177;-60
2021/09/24 08:59:49;;;;;;;4.73;2.80;;;;;;;20.60;32.58;101446.97;5126531;27;20624;-58
2021/09/24 09:02:15;;;;;;;3.83;2.70;;;;;;;20.34;32.30;101400.09;5127442;27;20718;-58
2021/09/24 09:04:46;;;;;;;6.87;2.80;;;;;;;20.66;32.96;101438.63;5126814;27;20235;-59
2021/09/24 09:07:21;;;;;;;2.97;2.60;;;;;;;20.75;32.12;101438.56;5123620;27;20193;-58
2021/09/24 09:09:50;;;;;;;4.77;2.90;;;;;;;20.90;32.08;101430.94;5127948;27;20231;-59
2021/09/24 09:12:27;;;;;;;6.13;2.70;;;;;;;21.05;32.09;101420.47;5106288;27;20185;-62
2021/09/24 09:15:03;;;;;;;4.30;2.40;;;;;;;21.20;32.53;101416.38;5109962;27;20240;-59
2021/09/24 09:17:34;;;;;;;3.97;2.43;;;;;;;21.33;31.32;101404.81;5123951;27;20191;-59
2021/09/24 09:20:12;;;;;;;2.53;2.33;;;;;;;21.43;30.55;101411.88;5128716;27;20574;-60
2021/09/24 09:22:40;;;;;;;5.30;2.47;;;;;;;21.56;30.75;101401.06;5127140;27;20189;-59
2021/09/24 09:25:12;;;;;;;3.67;2.60;;;;;;;21.73;31.36;101399.31;5128074;27;20204;-59
2021/09/24 09:27:38;;;;;;;6.03;2.73;;;;;;;21.89;31.38;101385.44;5127483;27;20758;-58
2021/09/24 09:30:12;;;;;;;4.73;2.37;;;;;;;21.64;29.70;101312.72;5128535;27;20178;-59
2021/09/24 09:32:56;;;;;;;5.90;2.27;;;;;;;22.14;28.87;101365.00;5123765;27;20567;-60
2021/09/24 09:35:22;;;;;;;3.90;2.30;;;;;;;22.24;28.86;101357.94;5126389;27;20197;-60
2021/09/24 09:37:48;;;;;;;4.47;2.03;;;;;;;22.34;28.82;101356.50;5126074;27;20192;-59
2021/09/24 09:40:16;;;;;;;5.03;2.57;;;;;;;22.39;28.79;101360.66;5118069;27;20181;-60
2021/09/24 09:42:44;;;;;;;4.93;2.33;;;;;;;22.25;28.85;101325.59;5115788;27;20209;-61
2021/09/24 09:45:13;;;;;;;6.17;2.73;;;;;;;22.49;28.66;101343.09;5124267;27;20349;-61
2021/09/24 09:47:42;;;;;;;3.73;2.13;;;;;;;22.57;28.49;101324.44;5105342;27;20654;-60
2021/09/24 09:50:12;;;;;;;2.63;2.30;;;;;;;22.75;28.40;101340.28;5126758;27;20204;-61
2021/09/24 09:52:58;;;;;;;4.43;2.40;;;;;;;22.93;29.25;101339.94;5123621;27;20226;-60
2021/09/24 09:55:25;;;;;;;4.13;2.27;;;;;;;23.06;28.55;101324.13;5124365;27;20671;-60
2021/09/24 09:57:59;;;;;;;4.03;1.90;;;;;;;23.20;28.08;101319.63;5119252;27;20189;-60
2021/09/24 10:00:26;;;;;;;3.50;2.10;;;;;;;23.16;27.48;101316.22;5127493;27;20596;-60
2021/09/24 10:03:07;;;;;;;4.47;2.03;;;;;;;23.28;27.82;101329.22;5125361;27;20173;-60
2021/09/24 10:05:33;;;;;;;5.83;2.10;;;;;;;23.40;27.20;101325.16;5128836;27;20579;-60
2021/09/24 10:07:58;;;;;;;4.00;1.70;;;;;;;23.54;26.31;101312.94;5125770;27;20177;-61
2021/09/24 10:10:24;;;;;;;6.47;2.27;;;;;;;23.65;26.35;101318.66;5119069;27;20246;-60
2021/09/24 10:12:49;;;;;;;3.43;1.90;;;;;;;23.75;26.65;101312.25;5122010;27;20181;-60
2021/09/24 10:15:15;;;;;;;3.00;1.90;;;;;;;23.87;26.39;101307.44;5106101;28;20261;-61
2021/09/24 10:17:44;;;;;;;4.53;2.03;;;;;;;23.93;26.23;101294.88;5121716;28;20541;-60
2021/09/24 10:20:11;;;;;;;4.30;1.70;;;;;;;23.89;26.35;101271.69;5125538;28;20223;-60
2021/09/24 10:22:37;;;;;;;3.73;1.83;;;;;;;23.99;26.07;101292.84;5125140;28;20182;-61
2021/09/24 10:25:04;;;;;;;2.83;1.93;;;;;;;24.13;26.03;101294.69;5124123;28;20204;-61
2021/09/24 10:27:44;;;;;;;2.97;2.33;;;;;;;24.22;25.65;101283.16;5126245;28;20224;-62
2021/09/24 10:30:18;;;;;;;4.50;3.20;;;;;;;24.36;25.47;101279.31;5123852;28;20271;-60
2021/09/24 10:33:11;;;;;;;3.37;2.60;;;;;;;24.44;25.41;101271.84;5126930;28;20162;-61
2021/09/24 10:35:46;;;;;;;4.83;3.23;;;;;;;24.40;25.00;101237.34;5124050;28;20193;-60
2021/09/24 10:38:12;;;;;;;5.97;3.30;;;;;;;24.71;25.85;101273.97;5104068;28;20191;-60
2021/09/24 10:41:05;;;;;;;3.47;2.40;;;;;;;24.83;25.57;101266.25;5123997;28;20719;-60
2021/09/24 10:43:45;;;;;;;4.50;2.13;;;;;;;24.96;25.12;101250.25;5125287;28;20178;-61
2021/09/24 10:46:29;;;;;;;3.40;2.27;;;;;;;25.17;25.21;101262.88;5119483;28;20198;-61
2021/09/24 10:49:15;;;;;;;3.57;2.07;;;;;;;25.30;24.61;101248.94;5122898;28;20181;-61
2021/09/24 10:51:47;;;;;;;2.67;1.90;;;;;;;25.44;25.12;101255.63;5119595;28;20233;-61
2021/09/24 10:54:20;;;;;;;3.70;2.30;;;;;;;25.63;24.90;101251.69;5124478;28;20635;-62
2021/09/24 10:57:08;;;;;;;3.40;2.40;;;;;;;25.70;24.73;101242.59;5123457;28;20730;-60
2021/09/24 10:59:34;;;;;;;3.67;2.23;;;;;;;25.78;24.34;101234.31;5122640;28;20173;-60
2021/09/24 11:02:20;;;;;;;3.77;2.13;;;;;;;25.48;24.59;101211.47;5121382;28;20261;-60
2021/09/24 11:04:48;;;;;;;5.83;1.77;;;;;;;25.55;24.22;101187.47;5127250;27;20199;-59
2021/09/24 11:07:30;;;;;;;9.33;2.00;;;;;;;25.74;24.27;101231.00;5127258;27;20591;-60
2021/09/24 11:09:57;;;;;;;4.50;1.90;;;;;;;25.77;24.27;101205.16;5126245;27;20677;-61
2021/09/24 11:12:24;;;;;;;2.87;1.90;;;;;;;25.93;23.88;101214.91;5129007;27;20174;-62
2021/09/24 11:15:08;;;;;;;3.80;1.87;;;;;;;26.05;24.47;101205.81;5129849;27;20667;-61
2021/09/24 11:17:40;;;;;;;2.83;1.70;;;;;;;26.16;24.27;101183.00;5130292;27;20238;-62
2021/09/24 11:20:35;;;;;;;4.97;2.00;;;;;;;26.48;23.81;101200.34;5127909;27;20573;-63
2021/09/24 11:23:33;;;;;;;3.93;2.00;;;;;;;26.70;23.63;101211.56;5122944;27;20198;-62
2021/09/24 11:26:29;;;;;;;3.83;2.00;;;;;;;26.66;23.30;101208.25;5129116;27;20674;-61